Terminal Aerodrome Forecast
Issued by NWS Wilmington, OH

Current Version | Previous Version | Graphics & Text | Print | Product List | Glossary On
Versions: 1 2 3 4 5 6 7 8 9 10 11 12 13 14 15 16 17 18 19 20 21 22 23 24 25 26 27 28
000
FTUS41 KILN 301418 AAA
TAFCMH
TAF AMD
KCMH 301418Z 3014/0112 10007KT P6SM VCSH OVC010
      TEMPO 3014/3016 1 1/2SM -TSRA BR OVC008CB
     FM301600 12009KT P6SM -SHRA VCTS SCT012CB BKN035
     FM301900 12007KT P6SM -SHRA BKN035
     FM010000 14004KT P6SM BKN040=

USA.gov is the U.S. government's official web portal to all federal, state and local government web resources and services.